createdAt,value
2023-04-17T00:01:40.644Z,7.84
2023-04-17T00:04:11.592Z,7.86
2023-04-17T00:06:45.750Z,7.86
2023-04-17T00:09:12.889Z,7.83
2023-04-17T00:11:40.875Z,7.83
2023-04-17T00:14:07.769Z,7.82
2023-04-17T00:16:34.683Z,7.81
2023-04-17T00:19:01.497Z,7.83
2023-04-17T00:21:30.166Z,7.77
2023-04-17T00:23:57.073Z,7.78
2023-04-17T00:26:24.343Z,7.76
2023-04-17T00:28:52.084Z,7.81
2023-04-17T00:31:19.216Z,7.82
2023-04-17T00:33:46.734Z,7.91
2023-04-17T00:36:15.653Z,7.82
2023-04-17T00:38:42.698Z,7.83
2023-04-17T00:41:10.219Z,7.81
2023-04-17T00:43:37.759Z,7.81
2023-04-17T00:46:06.285Z,7.83
2023-04-17T00:48:35.638Z,7.78
2023-04-17T00:51:03.497Z,7.81
2023-04-17T00:53:34.000Z,7.78
2023-04-17T00:56:03.668Z,7.78
2023-04-17T00:58:31.279Z,7.80
2023-04-17T01:00:58.330Z,7.87
2023-04-17T01:03:25.460Z,7.82
2023-04-17T01:05:52.755Z,7.80
2023-04-17T01:08:19.789Z,7.79
2023-04-17T01:10:47.566Z,7.85
2023-04-17T01:13:14.571Z,7.80
2023-04-17T01:15:43.199Z,7.88
2023-04-17T01:18:10.142Z,7.83
2023-04-17T01:20:37.812Z,7.82
2023-04-17T01:23:04.658Z,7.79
2023-04-17T01:25:31.623Z,7.80
2023-04-17T01:27:58.471Z,7.76
2023-04-17T01:30:27.305Z,7.78
2023-04-17T01:33:04.859Z,7.76
2023-04-17T01:35:31.767Z,7.74
2023-04-17T01:37:58.926Z,7.73
2023-04-17T01:40:25.887Z,7.77
2023-04-17T01:42:52.844Z,7.74
2023-04-17T01:45:19.840Z,7.66
2023-04-17T01:47:47.509Z,7.63
2023-04-17T01:50:14.574Z,7.69
2023-04-17T01:52:41.993Z,7.63
2023-04-17T01:55:09.314Z,7.59
2023-04-17T01:57:36.937Z,7.60
2023-04-17T02:00:08.140Z,7.63
2023-04-17T02:02:39.492Z,7.61
2023-04-17T02:05:07.260Z,7.52
2023-04-17T02:07:34.074Z,7.54
2023-04-17T02:10:01.010Z,7.52
2023-04-17T02:12:27.888Z,7.54
2023-04-17T02:14:54.840Z,7.54
2023-04-17T02:17:21.690Z,7.60
2023-04-17T02:19:48.683Z,7.48
2023-04-17T02:22:16.024Z,7.48
2023-04-17T02:24:42.901Z,7.41
2023-04-17T02:27:09.762Z,7.42
2023-04-17T02:29:36.615Z,7.37
2023-04-17T02:32:03.450Z,7.34
2023-04-17T02:34:31.196Z,7.37
2023-04-17T02:36:58.289Z,7.34
2023-04-17T02:39:25.657Z,7.23
2023-04-17T02:41:52.616Z,7.24
2023-04-17T02:44:19.551Z,7.28
2023-04-17T02:46:46.490Z,7.24
2023-04-17T02:49:14.221Z,7.22
2023-04-17T02:51:41.234Z,7.21
2023-04-17T02:54:08.131Z,7.16
2023-04-17T02:56:35.041Z,7.16
2023-04-17T02:59:02.035Z,7.14
2023-04-17T03:01:30.110Z,7.13
2023-04-17T03:03:57.330Z,7.13
2023-04-17T03:06:24.470Z,7.09
2023-04-17T03:08:51.732Z,7.13
2023-04-17T03:11:18.887Z,7.11
2023-04-17T03:13:45.858Z,7.16
2023-04-17T03:16:14.100Z,7.11
2023-04-17T03:18:42.588Z,7.17
2023-04-17T03:21:09.683Z,7.13
2023-04-17T03:23:36.983Z,7.07
2023-04-17T03:26:06.246Z,7.06
2023-04-17T03:28:34.062Z,7.07
2023-04-17T03:31:02.314Z,7.04
2023-04-17T03:33:31.202Z,7.03
2023-04-17T03:35:58.673Z,7.01
2023-04-17T03:38:26.122Z,7.01
2023-04-17T03:40:54.128Z,7.02
2023-04-17T03:43:23.526Z,7.06
2023-04-17T03:45:51.234Z,7.04
2023-04-17T03:48:18.549Z,7.08
2023-04-17T03:50:46.676Z,7.09
2023-04-17T03:53:13.589Z,7.07
2023-04-17T03:55:40.943Z,7.03
2023-04-17T03:58:11.206Z,7.04
2023-04-17T04:00:38.701Z,7.03
2023-04-17T04:03:09.769Z,7.06
2023-04-17T04:05:40.730Z,7.03
2023-04-17T04:08:09.302Z,7.07
2023-04-17T04:10:45.256Z,7.05
2023-04-17T04:13:15.893Z,7.09
2023-04-17T04:15:48.478Z,7.10
2023-04-17T04:18:18.403Z,7.13
2023-04-17T04:20:45.606Z,7.08
2023-04-17T04:23:17.648Z,7.06
2023-04-17T04:25:45.117Z,7.06
2023-04-17T04:28:24.425Z,7.07
2023-04-17T04:30:53.742Z,7.12
2023-04-17T04:33:25.267Z,7.11
2023-04-17T04:35:56.256Z,7.03
2023-04-17T04:38:30.302Z,7.11
2023-04-17T04:41:06.536Z,7.09
2023-04-17T04:43:34.384Z,7.04
2023-04-17T04:46:03.508Z,7.03
2023-04-17T04:48:33.700Z,7.05
2023-04-17T04:51:00.760Z,7.01
2023-04-17T04:53:27.668Z,7.04
2023-04-17T04:55:57.731Z,7.13
2023-04-17T04:58:26.049Z,7.14
2023-04-17T05:00:56.576Z,7.19
2023-04-17T05:03:30.380Z,7.12
2023-04-17T05:05:58.879Z,7.20
2023-04-17T05:08:33.098Z,7.20
2023-04-17T05:11:07.433Z,7.25
2023-04-17T05:13:34.791Z,7.25
2023-04-17T05:16:02.404Z,7.31
2023-04-17T05:18:30.209Z,7.33
2023-04-17T05:20:57.020Z,7.36
2023-04-17T05:23:25.936Z,7.38
2023-04-17T05:25:52.819Z,7.37
2023-04-17T05:28:19.965Z,7.42
2023-04-17T05:30:49.298Z,7.37
2023-04-17T05:33:23.581Z,7.35
2023-04-17T05:35:55.428Z,7.43
2023-04-17T05:38:23.293Z,7.41
2023-04-17T05:40:50.151Z,7.40
2023-04-17T05:43:17.176Z,7.46
2023-04-17T05:45:45.517Z,7.41
2023-04-17T05:48:12.387Z,7.46
2023-04-17T05:50:39.331Z,7.49
2023-04-17T05:53:07.806Z,7.46
2023-04-17T05:55:40.128Z,7.55
2023-04-17T06:00:44.978Z,7.52
2023-04-17T06:03:18.253Z,7.60
2023-04-17T06:05:47.425Z,7.60
2023-04-17T06:08:14.359Z,7.51
2023-04-17T06:10:41.800Z,7.66
2023-04-17T06:13:08.706Z,7.59
2023-04-17T06:15:36.740Z,7.64
2023-04-17T06:18:03.747Z,7.78
2023-04-17T06:20:30.781Z,7.76
2023-04-17T06:22:57.710Z,7.86
2023-04-17T06:25:24.660Z,7.84
2023-04-17T06:27:51.638Z,7.86
2023-04-17T06:30:18.666Z,7.82
2023-04-17T06:32:50.066Z,7.94
2023-04-17T06:35:19.414Z,7.92
2023-04-17T06:37:50.390Z,8.02
2023-04-17T06:40:17.451Z,8.12
2023-04-17T06:42:44.271Z,8.25
2023-04-17T06:45:17.693Z,8.39
2023-04-17T06:47:46.709Z,8.34
2023-04-17T06:50:19.780Z,8.44
2023-04-17T06:52:46.585Z,8.58
2023-04-17T06:55:13.381Z,8.68
2023-04-17T06:57:40.194Z,8.59
2023-04-17T07:00:07.564Z,8.72
2023-04-17T07:02:34.557Z,8.74
2023-04-17T07:05:01.676Z,8.81
2023-04-17T07:07:30.942Z,8.98
2023-04-17T07:09:57.759Z,9.05
2023-04-17T07:12:24.699Z,9.07
2023-04-17T07:14:51.554Z,9.11
2023-04-17T07:17:18.730Z,9.30
2023-04-17T07:19:45.673Z,9.38
2023-04-17T07:22:12.489Z,9.58
2023-04-17T07:24:39.380Z,9.65
2023-04-17T07:27:07.567Z,9.81
2023-04-17T07:29:34.390Z,9.90
2023-04-17T07:32:03.290Z,10.07
2023-04-17T07:34:31.976Z,9.95
2023-04-17T07:36:58.797Z,10.09
2023-04-17T07:39:28.750Z,10.21
2023-04-17T07:41:56.433Z,10.40
2023-04-17T07:44:23.275Z,10.66
2023-04-17T07:46:50.164Z,10.67
2023-04-17T07:49:17.261Z,10.88
2023-04-17T07:51:44.700Z,10.75
2023-04-17T07:54:11.695Z,10.82
2023-04-17T07:56:38.517Z,10.79
2023-04-17T07:59:05.310Z,11.00
2023-04-17T08:01:32.290Z,11.12
2023-04-17T08:03:59.699Z,11.23
2023-04-17T08:06:26.858Z,11.29
2023-04-17T08:08:53.713Z,11.31
2023-04-17T08:11:20.651Z,11.31
2023-04-17T08:13:47.593Z,11.48
2023-04-17T08:16:14.488Z,11.70
2023-04-17T08:18:42.258Z,11.66
2023-04-17T08:21:09.547Z,11.76
2023-04-17T08:23:36.595Z,11.95
2023-04-17T08:26:04.259Z,12.02
2023-04-17T08:28:31.195Z,12.13
2023-04-17T08:30:58.097Z,12.20
2023-04-17T08:33:25.015Z,12.24
2023-04-17T08:35:52.128Z,12.28
2023-04-17T08:38:18.946Z,12.33
2023-04-17T08:40:49.614Z,12.45
2023-04-17T08:43:19.659Z,12.50
2023-04-17T08:45:55.590Z,12.73
2023-04-17T08:48:24.372Z,12.52
2023-04-17T08:50:53.180Z,12.59
2023-04-17T08:53:21.224Z,12.90
2023-04-17T08:55:48.938Z,13.08
2023-04-17T08:58:15.816Z,13.25
2023-04-17T09:00:44.888Z,13.24
2023-04-17T09:03:13.729Z,13.24
2023-04-17T09:05:43.773Z,13.26
2023-04-17T09:08:22.068Z,13.38
2023-04-17T09:10:49.718Z,13.44
2023-04-17T09:13:19.239Z,13.47
2023-04-17T09:15:48.638Z,13.70
2023-04-17T09:18:26.723Z,13.92
2023-04-17T09:20:54.929Z,14.05
2023-04-17T09:23:23.576Z,14.07
2023-04-17T09:26:09.688Z,14.01
2023-04-17T09:28:39.626Z,13.85
2023-04-17T09:31:27.904Z,13.95
2023-04-17T09:33:58.179Z,14.14
2023-04-17T09:36:27.022Z,14.17
2023-04-17T09:38:54.645Z,14.36
2023-04-17T09:41:29.312Z,13.99
2023-04-17T09:44:02.069Z,13.76
2023-04-17T09:46:46.159Z,13.82
2023-04-17T09:49:40.021Z,14.04
2023-04-17T09:52:07.072Z,14.25
2023-04-17T09:54:38.494Z,14.71
2023-04-17T09:57:10.277Z,15.30
2023-04-17T09:59:41.690Z,15.21
2023-04-17T10:02:09.817Z,14.79
2023-04-17T10:04:39.701Z,15.01
2023-04-17T10:07:06.743Z,15.39
2023-04-17T10:09:33.584Z,15.58
2023-04-17T10:12:02.700Z,15.58
2023-04-17T10:14:36.817Z,15.15
2023-04-17T10:17:26.304Z,15.20
2023-04-17T10:19:53.335Z,15.34
2023-04-17T10:22:20.219Z,15.33
2023-04-17T10:24:52.355Z,15.15
2023-04-17T10:27:25.802Z,14.99
2023-04-17T10:30:00.062Z,14.90
2023-04-17T10:32:30.859Z,14.95
2023-04-17T10:34:59.511Z,14.79
2023-04-17T10:37:51.082Z,14.87
2023-04-17T10:40:22.731Z,15.16
2023-04-17T10:43:20.580Z,15.44
2023-04-17T10:46:06.599Z,15.76
2023-04-17T10:48:33.551Z,15.61
2023-04-17T10:51:19.720Z,15.43
2023-04-17T10:53:47.153Z,15.08
2023-04-17T10:56:26.600Z,15.09
2023-04-17T10:59:14.043Z,15.44
2023-04-17T11:01:58.446Z,15.82
2023-04-17T11:04:29.445Z,15.84
2023-04-17T11:06:56.561Z,15.79
2023-04-17T11:09:26.808Z,15.78
2023-04-17T11:11:54.465Z,15.44
2023-04-17T11:14:23.016Z,15.23
2023-04-17T11:16:51.956Z,15.60
2023-04-17T11:19:23.362Z,15.85
2023-04-17T11:21:54.877Z,15.83
2023-04-17T11:24:26.876Z,15.49
2023-04-17T11:26:55.114Z,15.67
2023-04-17T11:29:23.601Z,16.13
2023-04-17T11:31:53.935Z,16.33
2023-04-17T11:34:21.580Z,16.55
2023-04-17T11:36:52.144Z,16.62
2023-04-17T11:39:24.588Z,17.12
2023-04-17T11:41:52.273Z,17.32
2023-04-17T11:44:23.046Z,17.24
2023-04-17T11:46:54.568Z,17.50
2023-04-17T11:49:39.854Z,16.96
2023-04-17T11:52:06.814Z,16.30
2023-04-17T11:54:38.414Z,15.58
2023-04-17T11:57:06.439Z,15.32
2023-04-17T11:59:38.137Z,15.46
2023-04-17T12:02:07.729Z,15.97
2023-04-17T12:04:36.656Z,16.82
2023-04-17T12:07:04.998Z,16.75
2023-04-17T12:09:36.128Z,16.82
2023-04-17T12:12:07.466Z,16.41
2023-04-17T12:14:34.670Z,16.60
2023-04-17T12:17:01.624Z,16.95
2023-04-17T12:19:29.942Z,16.97
2023-04-17T12:21:57.630Z,16.82
2023-04-17T12:24:25.431Z,16.91
2023-04-17T12:26:53.399Z,17.16
2023-04-17T12:29:29.566Z,17.12
2023-04-17T12:32:07.818Z,17.34
2023-04-17T12:34:34.875Z,17.94
2023-04-17T12:37:01.755Z,17.93
2023-04-17T12:39:28.666Z,17.43
2023-04-17T12:41:55.557Z,17.35
2023-04-17T12:44:22.405Z,17.45
2023-04-17T12:46:49.243Z,17.89
2023-04-17T12:49:16.116Z,18.01
2023-04-17T12:51:42.914Z,18.14
2023-04-17T12:54:09.743Z,18.30
2023-04-17T12:56:36.676Z,17.88
2023-04-17T12:59:03.591Z,18.19
2023-04-17T13:01:30.767Z,18.45
2023-04-17T13:03:57.831Z,18.89
2023-04-17T13:06:25.369Z,19.23
2023-04-17T13:08:52.209Z,19.25
2023-04-17T13:11:19.086Z,19.34
2023-04-17T13:13:46.005Z,18.78
2023-04-17T13:16:12.862Z,19.26
2023-04-17T13:18:39.750Z,19.50
2023-04-17T13:21:07.012Z,19.80
2023-04-17T13:23:33.891Z,19.99
2023-04-17T13:26:00.765Z,20.94
2023-04-17T13:28:27.606Z,21.83
2023-04-17T13:30:54.508Z,22.14
2023-04-17T13:33:21.328Z,21.54
2023-04-17T13:35:48.228Z,21.82
2023-04-17T13:38:15.044Z,22.69
2023-04-17T13:40:41.922Z,23.28
2023-04-17T13:43:09.356Z,23.34
2023-04-17T13:45:36.401Z,22.29
2023-04-17T13:48:03.393Z,20.90
2023-04-17T13:50:30.440Z,21.03
2023-04-17T13:52:57.301Z,21.36
2023-04-17T13:55:24.396Z,21.47
2023-04-17T13:57:51.883Z,22.08
2023-04-17T14:00:19.079Z,21.49
2023-04-17T14:02:46.238Z,22.79
2023-04-17T14:05:13.344Z,24.53
2023-04-17T14:07:40.496Z,23.54
2023-04-17T14:10:08.441Z,23.88
2023-04-17T14:12:35.552Z,23.85
2023-04-17T14:15:02.468Z,22.79
2023-04-17T14:17:29.403Z,23.80
2023-04-17T14:19:56.248Z,23.47
2023-04-17T14:22:23.164Z,22.94
2023-04-17T14:24:50.487Z,23.87
2023-04-17T14:27:17.427Z,23.91
2023-04-17T14:29:44.385Z,23.75
2023-04-17T14:32:11.290Z,23.45
2023-04-17T14:34:38.089Z,22.71
2023-04-17T14:37:04.894Z,22.46
2023-04-17T14:39:33.130Z,23.31
2023-04-17T14:42:02.147Z,23.46
2023-04-17T14:44:29.455Z,23.39
2023-04-17T14:46:57.165Z,23.61
2023-04-17T14:49:24.418Z,23.72
2023-04-17T14:51:51.320Z,24.12
2023-04-17T14:54:18.306Z,24.16
2023-04-17T14:56:45.584Z,23.76
2023-04-17T14:59:12.809Z,24.11
2023-04-17T15:01:39.692Z,23.98
2023-04-17T15:04:06.825Z,22.74
2023-04-17T15:06:33.983Z,24.20
2023-04-17T15:09:00.886Z,24.13
2023-04-17T15:11:27.959Z,24.30
2023-04-17T15:13:54.770Z,23.90
2023-04-17T15:16:21.709Z,25.28
2023-04-17T15:18:48.593Z,24.96
2023-04-17T15:21:19.604Z,24.69
2023-04-17T15:23:46.453Z,24.63
2023-04-17T15:26:13.788Z,24.06
2023-04-17T15:28:40.865Z,23.93
2023-04-17T15:31:08.170Z,23.82
2023-04-17T15:33:35.094Z,23.74
2023-04-17T15:36:02.168Z,23.10
2023-04-17T15:38:29.024Z,22.71
2023-04-17T15:40:56.134Z,23.09
2023-04-17T15:43:23.683Z,23.38
2023-04-17T15:45:51.765Z,21.91
2023-04-17T15:48:18.719Z,21.20
2023-04-17T15:50:46.364Z,21.37
2023-04-17T15:53:13.440Z,21.58
2023-04-17T15:55:41.525Z,21.90
2023-04-17T15:58:08.812Z,21.91
2023-04-17T16:00:35.860Z,21.47
2023-04-17T16:03:02.920Z,20.10
2023-04-17T16:05:30.566Z,19.90
2023-04-17T16:07:57.583Z,19.31
2023-04-17T16:10:24.607Z,18.12
2023-04-17T16:12:51.477Z,17.55
2023-04-17T16:15:18.360Z,16.82
2023-04-17T16:17:49.076Z,16.35
2023-04-17T16:20:16.383Z,15.93
2023-04-17T16:22:43.897Z,15.56
2023-04-17T16:25:21.172Z,15.42
2023-04-17T16:27:48.321Z,15.30
2023-04-17T16:30:15.354Z,15.21
2023-04-17T16:32:44.446Z,15.22
2023-04-17T16:35:11.425Z,15.22
2023-04-17T16:37:38.690Z,15.09
2023-04-17T16:40:18.801Z,14.99
2023-04-17T16:42:48.091Z,14.92
2023-04-17T16:45:14.997Z,14.88
2023-04-17T16:47:41.848Z,14.81
2023-04-17T16:50:11.741Z,14.60
2023-04-17T16:52:39.272Z,14.62
2023-04-17T16:55:06.723Z,14.53
2023-04-17T16:57:38.330Z,14.43
2023-04-17T17:00:06.550Z,14.42
2023-04-17T17:02:33.499Z,14.43
2023-04-17T17:05:00.535Z,14.41
2023-04-17T17:07:27.479Z,14.36
2023-04-17T17:09:54.447Z,14.31
2023-04-17T17:12:21.362Z,14.26
2023-04-17T17:14:48.268Z,14.14
2023-04-17T17:17:15.243Z,14.12
2023-04-17T17:19:42.412Z,14.06
2023-04-17T17:22:09.616Z,14.03
2023-04-17T17:24:36.744Z,13.86
2023-04-17T17:27:03.754Z,13.83
2023-04-17T17:29:30.742Z,13.74
2023-04-17T17:31:57.825Z,13.73
2023-04-17T17:34:27.656Z,13.70
2023-04-17T17:36:54.519Z,13.60
2023-04-17T17:39:22.387Z,13.55
2023-04-17T17:41:49.548Z,13.49
2023-04-17T17:44:16.457Z,13.44
2023-04-17T17:46:43.406Z,13.43
2023-04-17T17:49:10.516Z,13.38
2023-04-17T17:51:37.393Z,13.33
2023-04-17T17:54:04.243Z,13.29
2023-04-17T17:56:31.208Z,13.27
2023-04-17T17:58:58.032Z,13.18
2023-04-17T18:01:25.222Z,13.09
2023-04-17T18:03:53.562Z,13.05
2023-04-17T18:06:21.097Z,13.00
2023-04-17T18:08:48.262Z,12.95
2023-04-17T18:11:15.340Z,12.84
2023-04-17T18:13:42.260Z,12.81
2023-04-17T18:16:09.379Z,12.78
2023-04-17T18:18:36.858Z,12.74
2023-04-17T18:21:07.388Z,12.64
2023-04-17T18:23:34.482Z,12.58
2023-04-17T18:26:03.112Z,12.53
2023-04-17T18:28:30.324Z,12.45
2023-04-17T18:30:57.249Z,12.36
2023-04-17T18:33:24.248Z,12.29
2023-04-17T18:35:51.322Z,12.25
2023-04-17T18:38:18.325Z,12.09
2023-04-17T18:40:45.193Z,12.03
2023-04-17T18:43:12.105Z,11.98
2023-04-17T18:45:38.913Z,11.91
2023-04-17T18:48:06.109Z,11.85
2023-04-17T18:50:33.116Z,11.73
2023-04-17T18:53:00.023Z,11.67
2023-04-17T18:55:26.878Z,11.56
2023-04-17T18:57:53.737Z,11.49
2023-04-17T19:00:20.547Z,11.45
2023-04-17T19:02:47.988Z,11.37
2023-04-17T19:05:15.340Z,11.31
2023-04-17T19:07:42.310Z,11.22
2023-04-17T19:10:09.999Z,11.17
2023-04-17T19:12:36.848Z,11.11
2023-04-17T19:15:04.582Z,11.07
2023-04-17T19:17:31.695Z,10.98
2023-04-17T19:19:58.561Z,10.90
2023-04-17T19:22:25.613Z,10.83
2023-04-17T19:24:53.141Z,10.79
2023-04-17T19:27:20.414Z,10.76
2023-04-17T19:29:47.636Z,10.69
2023-04-17T19:32:16.770Z,10.58
2023-04-17T19:34:44.306Z,10.56
2023-04-17T19:37:11.225Z,10.53
2023-04-17T19:39:38.060Z,10.48
2023-04-17T19:42:05.783Z,10.44
2023-04-17T19:44:32.780Z,10.43
2023-04-17T19:46:59.641Z,10.38
2023-04-17T19:49:26.615Z,10.33
2023-04-17T19:51:53.472Z,10.27
2023-04-17T19:54:20.435Z,10.18
2023-04-17T19:56:47.279Z,10.15
2023-04-17T19:59:14.511Z,10.05
2023-04-17T20:01:43.842Z,9.98
2023-04-17T20:04:11.300Z,9.87
2023-04-17T20:06:39.680Z,9.79
2023-04-17T20:09:06.874Z,9.70
2023-04-17T20:11:34.481Z,9.64
2023-04-17T20:14:01.342Z,9.61
2023-04-17T20:16:28.259Z,9.56
2023-04-17T20:18:56.850Z,9.49
2023-04-17T20:21:23.885Z,9.41
2023-04-17T20:23:50.841Z,9.36
2023-04-17T20:26:17.691Z,9.24
2023-04-17T20:28:44.566Z,9.21
2023-04-17T20:31:11.876Z,9.17
2023-04-17T20:33:38.870Z,9.14
2023-04-17T20:36:06.168Z,9.06
2023-04-17T20:38:33.084Z,9.03
2023-04-17T20:40:59.918Z,8.92
2023-04-17T20:43:26.798Z,8.86
2023-04-17T20:45:53.734Z,8.84
2023-04-17T20:48:22.092Z,8.78
2023-04-17T20:50:49.163Z,8.71
2023-04-17T20:53:16.107Z,8.70
2023-04-17T20:55:43.131Z,8.65
2023-04-17T20:58:10.440Z,8.58
2023-04-17T21:00:41.987Z,8.52
2023-04-17T21:03:14.709Z,8.44
2023-04-17T21:05:41.827Z,8.39
2023-04-17T21:08:08.633Z,8.33
2023-04-17T21:10:35.473Z,8.27
2023-04-17T21:13:02.452Z,8.23
2023-04-17T21:15:29.392Z,8.16
2023-04-17T21:17:56.262Z,8.09
2023-04-17T21:20:23.345Z,8.06
2023-04-17T21:22:50.246Z,7.98
2023-04-17T21:25:17.136Z,7.97
2023-04-17T21:27:44.084Z,7.90
2023-04-17T21:30:11.285Z,7.87
2023-04-17T21:32:39.462Z,7.81
2023-04-17T21:35:06.911Z,7.79
2023-04-17T21:37:33.847Z,7.73
2023-04-17T21:40:00.682Z,7.71
2023-04-17T21:42:27.532Z,7.63
2023-04-17T21:44:54.458Z,7.57
2023-04-17T21:47:21.297Z,7.49
2023-04-17T21:49:48.586Z,7.43
2023-04-17T21:52:16.769Z,7.45
2023-04-17T21:54:44.796Z,7.38
2023-04-17T21:57:11.677Z,7.29
2023-04-17T21:59:38.535Z,7.24
2023-04-17T22:02:05.527Z,7.23
2023-04-17T22:04:32.425Z,7.18
2023-04-17T22:06:59.286Z,7.17
2023-04-17T22:09:28.908Z,7.12
2023-04-17T22:11:56.698Z,7.08
2023-04-17T22:14:23.559Z,7.06
2023-04-17T22:16:50.638Z,7.00
2023-04-17T22:19:17.556Z,6.94
2023-04-17T22:21:44.407Z,6.88
2023-04-17T22:24:11.646Z,6.81
2023-04-17T22:26:38.702Z,6.82
2023-04-17T22:29:05.621Z,6.78
2023-04-17T22:31:32.540Z,6.74
2023-04-17T22:33:59.544Z,6.75
2023-04-17T22:36:26.614Z,6.78
2023-04-17T22:38:53.455Z,6.72
2023-04-17T22:41:20.448Z,6.65
2023-04-17T22:43:50.562Z,6.65
2023-04-17T22:46:17.365Z,6.64
2023-04-17T22:48:47.328Z,6.67
2023-04-17T22:51:15.272Z,6.61
2023-04-17T22:53:42.903Z,6.64
2023-04-17T22:56:13.932Z,6.62
2023-04-17T22:58:40.892Z,6.53
2023-04-17T23:01:07.838Z,6.49
2023-04-17T23:03:35.389Z,6.47
2023-04-17T23:06:03.260Z,6.40
2023-04-17T23:08:31.222Z,6.37
2023-04-17T23:11:03.564Z,6.32
2023-04-17T23:13:33.905Z,6.30
2023-04-17T23:16:00.806Z,6.29
2023-04-17T23:18:27.815Z,6.27
2023-04-17T23:20:54.785Z,6.20
2023-04-17T23:23:21.757Z,6.25
2023-04-17T23:25:48.726Z,6.23
2023-04-17T23:28:15.700Z,6.21
2023-04-17T23:30:42.606Z,6.20
2023-04-17T23:33:09.928Z,6.19
2023-04-17T23:35:36.833Z,6.20
2023-04-17T23:38:03.772Z,6.17
2023-04-17T23:40:32.887Z,6.17
2023-04-17T23:42:59.894Z,6.13
2023-04-17T23:45:26.969Z,6.10
2023-04-17T23:47:53.903Z,6.09
2023-04-17T23:50:20.882Z,6.01
2023-04-17T23:52:47.715Z,6.01
2023-04-17T23:55:14.687Z,5.96
2023-04-17T23:57:41.829Z,5.94
